Pleasant Valley, Iowa
Current Conditions -  °F | °C
As of 8:37 PM on Friday 24 Oct 2014 (Local Time) from KDVN Reporting Station
Haze Haze  
Wind Chill: 59°   Ceiling: 4000
Heat Index: 59°   Visibility: 5mi
Dew Point: 56°   Wind: 7mph
Humidity: 90%   Direction: 270°W
Pressure: 29.96"   Gusts: NA
Location:  41.57°N, 90.42°W
Report Text: KDVN 250137Z AUTO 27006KT 5SM BR FEW020 BKN040 15/13 A2996 RMK AO2 T01500133 TSNO
Loading
Personal Weather Stations






























Interactive Weather Map
Tropical Storm Tracking
New forecast layout! Learn more

10-Day Weather Forecast

Advertisements
Track Severe Weather on mobile